Time;durP1;ratioP1;P1;durP2;ratioP2;P2;SDS_P1;SDS_P2;PMS_P1;PMS_P2;Temp;Humidity;BMP_temperature;BMP_pressure;BME280_temperature;BME280_humidity;BME280_pressure;Samples;Min_cycle;Max_cycle;Signal;HPM_P1;HPM_P2
2022/06/15 00:03:09;;;;;;;;;;;30.40;29.40;;;;;;21163343;28;20022;-69
2022/06/15 00:13:11;;;;;;;;;;;30.10;29.80;;;;;;21168553;28;20271;-64
2022/06/15 00:23:12;;;;;;;;;;;29.60;30.10;;;;;;21179332;28;20296;-71
2022/06/15 00:33:14;;;;;;;;;;;29.40;30.60;;;;;;21160407;28;20028;-70
2022/06/15 00:43:27;;;;;;;;;;;29.10;30.20;;;;;;21177257;28;20428;-71
2022/06/15 00:53:28;;;;;;;;;;;28.60;30.30;;;;;;21178885;28;20332;-70
2022/06/15 01:03:30;;;;;;;;;;;28.20;30.30;;;;;;21177785;28;19977;-68
2022/06/15 01:13:51;;;;;;;;;;;28.10;30.50;;;;;;21177967;28;20375;-70
2022/06/15 01:23:53;;;;;;;;;;;28.00;30.60;;;;;;21174242;28;19923;-62
2022/06/15 01:34:17;;;;;;;;;;;28.10;30.50;;;;;;21173722;28;19935;-67
2022/06/15 01:44:41;;;;;;;;;;;28.10;30.40;;;;;;21172891;28;19931;-68
2022/06/15 01:54:51;;;;;;;;;;;28.00;30.70;;;;;;21187843;27;19923;-67
2022/06/15 02:04:54;;;;;;;;;;;27.80;30.90;;;;;;21170830;28;19975;-70
2022/06/15 02:14:59;;;;;;;;;;;27.70;31.30;;;;;;21169811;28;19931;-69
2022/06/15 02:25:03;;;;;;;;;;;27.80;31.90;;;;;;21169971;28;20002;-70
2022/06/15 02:35:07;;;;;;;;;;;28.10;31.80;;;;;;21168727;28;19923;-69
2022/06/15 02:45:11;;;;;;;;;;;28.00;32.00;;;;;;21165700;28;19930;-63
2022/06/15 02:55:13;;;;;;;;;;;28.00;32.00;;;;;;21167144;28;20379;-64
2022/06/15 03:05:14;;;;;;;;;;;27.90;32.20;;;;;;21167178;28;19988;-66
2022/06/15 03:15:16;;;;;;;;;;;27.90;32.30;;;;;;21165535;28;19924;-70
2022/06/15 03:25:18;;;;;;;;;;;27.80;32.80;;;;;;21238043;27;19924;-66
2022/06/15 03:35:19;;;;;;;;;;;27.20;33.40;;;;;;21249379;27;19923;-65
2022/06/15 03:45:21;;;;;;;;;;;26.80;33.50;;;;;;21249094;27;19963;-62
2022/06/15 03:55:23;;;;;;;;;;;26.60;33.90;;;;;;21249122;27;20458;-61
2022/06/15 04:05:31;;;;;;;;;;;26.40;34.00;;;;;;21248399;28;19931;-69
2022/06/15 04:15:33;;;;;;;;;;;26.30;34.40;;;;;;21247495;28;19931;-61
2022/06/15 04:25:39;;;;;;;;;;;26.20;34.80;;;;;;21246698;28;19941;-61
2022/06/15 04:35:41;;;;;;;;;;;26.20;34.40;;;;;;21247382;28;19931;-68
2022/06/15 04:45:42;;;;;;;;;;;26.20;34.20;;;;;;21228421;28;19927;-62
2022/06/15 04:55:44;;;;;;;;;;;26.10;34.60;;;;;;21245493;28;19934;-61
2022/06/15 05:05:46;;;;;;;;;;;26.10;34.90;;;;;;21260642;27;20350;-67
2022/06/15 05:15:50;;;;;;;;;;;25.90;35.00;;;;;;21260772;27;20043;-63
2022/06/15 05:25:52;;;;;;;;;;;25.80;35.20;;;;;;21181136;27;19976;-62
2022/06/15 05:36:00;;;;;;;;;;;25.80;35.10;;;;;;21173825;28;19979;-67
2022/06/15 05:46:34;;;;;;;;;;;25.70;35.10;;;;;;21172899;28;20006;-69
2022/06/15 05:56:35;;;;;;;;;;;25.70;35.60;;;;;;20747454;28;19925;-67
2022/06/15 06:06:36;;;;;;;;;;;25.90;35.90;;;;;;20747540;28;19930;-67
2022/06/15 06:16:38;;;;;;;;;;;26.00;35.90;;;;;;20745362;28;20486;-66
2022/06/15 06:26:45;;;;;;;;;;;26.00;36.50;;;;;;20885439;28;19930;-68
2022/06/15 06:36:47;;;;;;;;;;;26.20;36.30;;;;;;21167194;28;19977;-66
2022/06/15 06:46:50;;;;;;;;;;;26.40;35.80;;;;;;21167177;28;20306;-64
2022/06/15 06:56:52;;;;;;;;;;;26.90;34.90;;;;;;21166432;28;19971;-68
2022/06/15 07:06:57;;;;;;;;;;;27.90;32.70;;;;;;21167446;28;20278;-67
2022/06/15 07:16:59;;;;;;;;;;;28.60;31.30;;;;;;21165223;28;19923;-66
2022/06/15 07:27:01;;;;;;;;;;;29.10;30.80;;;;;;21165749;28;19928;-64
2022/06/15 07:37:03;;;;;;;;;;;29.70;30.30;;;;;;21163703;28;19924;-64
2022/06/15 07:57:26;;;;;;;;;;;30.40;29.30;;;;;;21162798;28;19949;-61
2022/06/15 08:07:28;;;;;;;;;;;30.90;28.90;;;;;;21162489;28;19930;-63
2022/06/15 08:17:32;;;;;;;;;;;;;;;;;;21163130;28;19928;-63
2022/06/15 08:27:35;;;;;;;;;;;31.50;27.80;;;;;;21161931;28;19924;-66
2022/06/15 08:37:37;;;;;;;;;;;31.50;27.70;;;;;;21173127;28;19924;-62
2022/06/15 08:48:14;;;;;;;;;;;31.40;27.60;;;;;;21177664;28;19924;-62
2022/06/15 08:58:25;;;;;;;;;;;31.90;27.10;;;;;;20751792;28;19938;-63
2022/06/15 09:08:46;;;;;;;;;;;32.50;26.60;;;;;;20750931;28;20197;-63
2022/06/15 09:18:48;;;;;;;;;;;32.70;26.70;;;;;;20733894;28;19925;-62
2022/06/15 09:28:53;;;;;;;;;;;33.50;25.70;;;;;;20933142;28;19924;-62
2022/06/15 09:38:56;;;;;;;;;;;33.70;25.70;;;;;;21088816;28;19924;-61
2022/06/15 09:49:06;;;;;;;;;;;33.90;25.60;;;;;;21086961;28;19924;-64
2022/06/15 09:59:09;;;;;;;;;;;33.80;25.50;;;;;;21086541;28;19942;-63
2022/06/15 10:09:15;;;;;;;;;;;34.20;25.40;;;;;;21086816;28;19966;-62
2022/06/15 10:19:17;;;;;;;;;;;34.40;25.20;;;;;;21089163;27;20371;-64
2022/06/15 10:29:27;;;;;;;;;;;34.50;24.70;;;;;;21169608;28;19923;-63
2022/06/15 10:39:33;;;;;;;;;;;34.70;24.30;;;;;;21168412;28;19923;-63
2022/06/15 10:49:35;;;;;;;;;;;;;;;;;;21168744;28;19928;-63
2022/06/15 11:10:05;;;;;;;;;;;35.40;24.20;;;;;;21166696;28;19923;-64
2022/06/15 11:20:18;;;;;;;;;;;35.70;23.90;;;;;;21164217;27;19924;-64
2022/06/15 11:30:25;;;;;;;;;;;35.90;23.90;;;;;;21164857;28;20294;-68
2022/06/15 11:40:36;;;;;;;;;;;36.20;23.50;;;;;;21164993;28;20316;-63
2022/06/15 11:50:51;;;;;;;;;;;36.40;23.20;;;;;;21163416;28;19947;-63
2022/06/15 12:00:52;;;;;;;;;;;36.70;22.60;;;;;;21163562;28;20228;-63
2022/06/15 12:10:57;;;;;;;;;;;37.20;21.70;;;;;;21170686;28;19924;-64
2022/06/15 12:20:59;;;;;;;;;;;;;;;;;;21179546;27;19924;-64
2022/06/15 12:31:03;;;;;;;;;;;38.40;20.10;;;;;;21179102;28;19924;-64
2022/06/15 12:41:05;;;;;;;;;;;38.10;20.30;;;;;;21178678;28;19984;-63
2022/06/15 12:51:12;;;;;;;;;;;37.60;20.90;;;;;;21177518;28;19949;-64
2022/06/15 13:01:21;;;;;;;;;;;38.00;20.90;;;;;;21176389;28;20294;-63
2022/06/15 13:11:22;;;;;;;;;;;37.90;20.60;;;;;;21176436;28;19934;-64
2022/06/15 13:21:26;;;;;;;;;;;38.00;20.60;;;;;;21174474;27;19924;-63
2022/06/15 13:31:44;;;;;;;;;;;38.40;20.00;;;;;;21155603;28;20318;-64
2022/06/15 13:41:45;;;;;;;;;;;38.50;19.50;;;;;;21174406;28;19927;-64
2022/06/15 13:51:55;;;;;;;;;;;38.30;19.60;;;;;;21173515;28;19968;-63
2022/06/15 14:02:02;;;;;;;;;;;38.40;19.60;;;;;;21174666;28;19924;-66
2022/06/15 14:12:16;;;;;;;;;;;38.50;19.70;;;;;;21174977;28;20414;-67
2022/06/15 14:22:22;;;;;;;;;;;38.40;19.30;;;;;;21169640;27;19924;-69
2022/06/15 14:32:26;;;;;;;;;;;38.40;19.50;;;;;;21150735;28;20417;-69
2022/06/15 14:42:28;;;;;;;;;;;;;;;;;;21169356;28;19982;-72
2022/06/15 14:52:33;;;;;;;;;;;39.40;18.60;;;;;;21168229;28;20345;-72
2022/06/15 15:02:38;;;;;;;;;;;38.90;19.00;;;;;;21167866;28;19923;-76
2022/06/15 15:12:42;;;;;;;;;;;38.90;19.00;;;;;;21166514;28;19924;-69
2022/06/15 15:22:51;;;;;;;;;;;38.90;18.60;;;;;;21146640;27;20018;-69
2022/06/15 15:43:12;;;;;;;;;;;39.00;18.70;;;;;;21161879;28;19924;-67
2022/06/15 15:53:14;;;;;;;;;;;38.90;18.60;;;;;;21164393;28;20276;-62
2022/06/15 16:03:17;;;;;;;;;;;38.90;18.70;;;;;;21163836;28;19938;-63
2022/06/15 16:13:19;;;;;;;;;;;39.20;18.40;;;;;;21162103;28;19924;-61
2022/06/15 16:23:23;;;;;;;;;;;39.30;18.60;;;;;;21161882;27;19924;-63
2022/06/15 16:33:25;;;;;;;;;;;38.90;18.50;;;;;;21160693;28;20327;-63
2022/06/15 16:43:26;;;;;;;;;;;38.60;18.80;;;;;;21159873;28;19935;-63
2022/06/15 16:53:27;;;;;;;;;;;38.50;19.00;;;;;;21162813;28;19924;-71
2022/06/15 17:03:28;;;;;;;;;;;38.50;19.00;;;;;;21174370;28;19930;-70
2022/06/15 17:13:31;;;;;;;;;;;38.40;18.60;;;;;;21173835;28;19923;-64
2022/06/15 17:23:35;;;;;;;;;;;38.40;18.50;;;;;;21173636;28;19923;-69
2022/06/15 17:33:38;;;;;;;;;;;;;;;;;;21173409;28;19923;-64
2022/06/15 17:43:40;;;;;;;;;;;38.40;18.30;;;;;;21171899;28;19924;-62
2022/06/15 17:53:42;;;;;;;;;;;38.50;18.50;;;;;;21172653;28;19928;-62
2022/06/15 18:03:43;;;;;;;;;;;38.50;18.30;;;;;;21155308;28;20325;-62
2022/06/15 18:13:50;;;;;;;;;;;;;;;;;;21100909;28;19927;-63
2022/06/15 18:23:51;;;;;;;;;;;;;;;;;;21164253;28;20023;-60
2022/06/15 18:33:53;;;;;;;;;;;37.80;19.40;;;;;;21129179;28;19953;-62
2022/06/15 18:54:16;;;;;;;;;;;36.60;20.10;;;;;;21169502;28;19923;-61
2022/06/15 19:04:17;;;;;;;;;;;36.30;20.30;;;;;;21167445;28;20288;-69
2022/06/15 19:14:19;;;;;;;;;;;36.00;20.40;;;;;;21166350;28;19959;-66
2022/06/15 19:34:40;;;;;;;;;;;35.00;22.30;;;;;;21167396;28;20374;-68
2022/06/15 19:44:43;;;;;;;;;;;34.50;22.90;;;;;;21178311;28;20006;-66
2022/06/15 19:54:44;;;;;;;;;;;34.20;23.20;;;;;;21163776;28;19931;-63
2022/06/15 20:04:46;;;;;;;;;;;34.00;23.30;;;;;;21162751;28;19928;-66
2022/06/15 20:14:48;;;;;;;;;;;33.80;23.20;;;;;;21163063;28;19947;-63
2022/06/15 20:24:50;;;;;;;;;;;33.70;23.40;;;;;;21165032;28;19930;-66
2022/06/15 20:34:53;;;;;;;;;;;33.60;23.70;;;;;;21176660;28;19923;-65
2022/06/15 20:44:56;;;;;;;;;;;33.40;24.00;;;;;;21182182;28;20375;-64
2022/06/15 20:54:58;;;;;;;;;;;33.30;24.20;;;;;;21180877;28;20279;-65
2022/06/15 21:04:59;;;;;;;;;;;32.90;24.50;;;;;;21176119;28;19928;-65
2022/06/15 21:25:23;;;;;;;;;;;32.60;25.50;;;;;;21174845;28;19930;-64
2022/06/15 21:35:25;;;;;;;;;;;32.50;25.20;;;;;;21174563;28;19931;-65
2022/06/15 21:45:27;;;;;;;;;;;32.40;26.00;;;;;;21174781;28;19924;-67
2022/06/15 21:55:30;;;;;;;;;;;32.20;26.10;;;;;;21188951;27;19974;-66
2022/06/15 22:05:33;;;;;;;;;;;32.20;26.10;;;;;;21174433;28;20367;-64
2022/06/15 22:15:35;;;;;;;;;;;32.20;25.60;;;;;;21173550;28;20429;-67
2022/06/15 22:25:37;;;;;;;;;;;32.10;25.40;;;;;;21166889;28;19930;-66
2022/06/15 22:35:39;;;;;;;;;;;32.10;25.70;;;;;;21164908;28;19930;-67
2022/06/15 22:45:41;;;;;;;;;;;31.90;26.00;;;;;;21164657;28;20430;-64
2022/06/15 22:55:43;;;;;;;;;;;31.70;26.00;;;;;;21163132;28;20410;-66
2022/06/15 23:05:45;;;;;;;;;;;31.60;26.10;;;;;;21163370;28;19931;-64
2022/06/15 23:15:46;;;;;;;;;;;31.60;26.30;;;;;;21163285;28;20371;-66
2022/06/15 23:25:48;;;;;;;;;;;31.60;26.50;;;;;;21098661;28;1881316;-65
2022/06/15 23:35:49;;;;;;;;;;;31.50;26.30;;;;;;21165520;28;19946;-66
2022/06/15 23:56:14;;;;;;;;;;;31.40;25.90;;;;;;21163321;28;19924;-66
